Buoy 13516

sailwx.info

Track history (hours):
 
Tides and Currents Weather Stations Pressure Air Temp Water Temp Dewpoint Dewpoint Depression Visibility Wind Speed Wind Dir Waves Ship Positions

Ao Chao Yang 13516

Last reported at 2014-Nov-24 01:20 UTC. Time now 2014-Nov-24 04:03 UTC.
Position N 28°01' W 039°14'.

Length 20 m.

Type: Fishing. MMSI: 412469022.

Water temperature 24.5 ° C

Date/timePositionNaut miles runAvg speedWind from/ knotsBaromVisibWave heightAir tempDewpointWater temp
2014-Nov-24 01:20N 28°01' W 039°14'1 9.0 24.5
2014-Nov-24 01:16N 28°01' W 039°14'1 0.7 24.5
2014-Nov-24 00:32N 28°01' W 039°14'0 0.0 24.5
2014-Nov-23 23:41N 28°01' W 039°14'1 1.5 24.5
2014-Nov-23 22:52N 28°01' W 039°16'0 0.0 24.5
2014-Nov-23 22:44N 28°01' W 039°16'1 8.0 24.5
2014-Nov-23 22:38N 28°01' W 039°15'1 1.7 24.5
2014-Nov-23 21:56N 28°01' W 039°14'0 0.0 24.5
2014-Nov-23 20:52N 28°01' W 039°14'1 0.4 24.6
2014-Nov-23 19:29N 28°01' W 039°14'1 5.3 24.8
2014-Nov-23 19:23N 28°01' W 039°14'1 4.5 24.8
2014-Nov-23 19:16N 28°01' W 039°14'0 0.0 24.8
2014-Nov-23 19:11N 28°01' W 039°14'1 0.4 24.8
2014-Nov-23 17:49N 28°01' W 039°14'1 2.4 25.1
2014-Nov-23 17:34N 28°01' W 039°14'0 0.0 25.2
2014-Nov-23 17:31N 28°01' W 039°14'0 0.0 25.2
2014-Nov-23 15:53N 28°01' W 039°14'0 0.0 25.1
2014-Nov-23 14:10N 28°01' W 039°14'0 0.0
2014-Nov-23 14:01N 28°01' W 039°14'0 0.0 24.7
2014-Nov-23 13:17N 28°01' W 039°14'0 0.0 24.7
2014-Nov-23 13:13N 28°01' W 039°14'1 6.0 24.7
2014-Nov-23 13:07N 28°01' W 039°14'1 0.7 24.7
2014-Nov-23 12:23N 28°01' W 039°15'1 7.9 24.6
2014-Nov-23 12:19N 28°01' W 039°14'110.6 24.6
2014-Nov-23 12:16N 28°01' W 039°14'1 0.8 24.6
2014-Nov-23 11:29N 28°01' W 039°14'0 0.0 24.5
2014-Nov-23 10:43N 28°01' W 039°14'1 6.4 24.5
2014-Nov-23 10:38N 28°01' W 039°13'1 1.7 24.5
2014-Nov-23 10:19N 28°01' W 039°14'1 0.7 24.5
2014-Nov-23 09:35N 28°01' W 039°13'112.0 24.5
2014-Nov-23 09:32N 28°01' W 039°13'0 0.0 24.5
2014-Nov-23 08:44N 28°01' W 039°13'1 1.1 24.5
2014-Nov-23 08:02N 28°01' W 039°13'1 3.2 24.5
2014-Nov-23 07:52N 28°01' W 039°13'1 0.7 24.5
2014-Nov-23 07:04N 28°01' W 039°13'1 0.9 24.5
2014-Nov-23 06:26N 28°02' W 039°13'0 0.0 24.5
2014-Nov-23 06:14N 28°02' W 039°13'1 5.3 24.5
2014-Nov-23 06:08N 28°02' W 039°12'148.0 24.5
2014-Nov-23 06:07N 28°02' W 039°13'0 0.0 24.5
2014-Nov-23 04:32N 28°02' W 039°13'1 0.4 24.5
2014-Nov-23 01:38N 28°02' W 039°11'0 0.0
2014-Nov-23 01:37N 28°02' W 039°11'1 1.7 24.5
2014-Nov-23 00:52N 28°03' W 039°12'0 0.0 24.5
2014-Nov-23 00:02N 28°03' W 039°12'0 0.0 24.5
2014-Nov-22 23:59N 28°03' W 039°12'2 3.2 24.5
2014-Nov-22 23:14N 28°02' W 039°14'112.0 24.5
2014-Nov-22 23:11N 28°02' W 039°14'0 6.3
2014-Nov-22 23:07N 28°02' W 039°14'2 3.0 24.5
2014-Nov-22 22:19N 28°03' W 039°12'0 0.0
2014-Nov-22 22:17N 28°03' W 039°12'0 0.0 24.5
2014-Nov-22 21:34N 28°03' W 039°12'1 2.7 24.5
2014-Nov-22 21:16N 28°04' W 039°11'1 0.6 24.5
2014-Nov-22 19:53N 28°03' W 039°12'1 5.1 24.5
2014-Nov-22 19:46N 28°04' W 039°12'0 2.9 24.5
2014-Nov-22 19:41N 28°04' W 039°12'0 0.1 24.5
2014-Nov-22 18:01N 28°04' W 039°12'0 0.0 24.7
2014-Nov-22 17:56N 28°04' W 039°12'0 0.0 24.7
2014-Nov-22 17:46N 28°04' W 039°12'1 0.3 24.6
2014-Nov-22 16:07N 28°04' W 039°13'0 0.0 24.5
2014-Nov-22 14:22N 28°04' W 039°13'0 0.0 24.5
2014-Nov-22 13:38N 28°04' W 039°13'1 7.9 24.5
2014-Nov-22 13:34N 28°04' W 039°13'0 0.0 24.5
2014-Nov-22 12:41N 28°04' W 039°13'0 0.0 24.5
2014-Nov-22 12:35N 28°04' W 039°13'0 0.0 24.5
2014-Nov-22 11:53N 28°04' W 039°13'0 0.0 24.5
2014-Nov-22 11:50N 28°04' W 039°13'1 0.9 24.5
2014-Nov-22 10:59N 28°03' W 039°13'0 0.0 24.5
2014-Nov-22 10:01N 28°03' W 039°13'0 0.6 24.5
2014-Nov-22 09:16N 28°03' W 039°12'1 0.8 24.4
2014-Nov-22 08:16N 28°04' W 039°11'0 0.0 24.4
2014-Nov-22 07:35N 28°04' W 039°11'0 0.0 24.4
2014-Nov-22 06:40N 28°04' W 039°11'112.0 24.5
2014-Nov-22 06:37N 28°04' W 039°11'0 0.0 24.5
2014-Nov-22 06:23N 28°04' W 039°11'1 6.0 24.5
2014-Nov-22 06:17N 28°05' W 039°11'0 0.0 24.5
2014-Nov-22 04:43N 28°05' W 039°11'1 0.4 24.5
2014-Nov-22 03:01N 28°05' W 039°11'0 0.0 24.5
2014-Nov-22 01:13N 28°05' W 039°11'1 9.6 24.5
2014-Nov-22 01:08N 28°06' W 039°11'0 0.0 24.5
2014-Nov-22 00:23N 28°06' W 039°11'0 0.0 24.5
2014-Nov-21 23:32N 28°06' W 039°11'1 1.3 24.5
2014-Nov-21 22:37N 28°07' W 039°10'0 0.5 24.5
2014-Nov-21 22:04N 28°07' W 039°11'0 0.0 24.5
2014-Nov-21 20:23N 28°07' W 039°11'0 0.6 24.6
2014-Nov-21 20:17N 28°07' W 039°11'0 0.0 24.6
2014-Nov-21 20:13N 28°07' W 039°11'1 1.5
2014-Nov-21 19:52N 28°07' W 039°11'1 0.3 24.6
2014-Nov-21 18:08N 28°07' W 039°12'1 2.1 24.7
2014-Nov-21 17:53N 28°07' W 039°11'0 0.0 24.7
2014-Nov-21 16:19N 28°07' W 039°11'0 0.0 24.8
2014-Nov-21 14:35N 28°07' W 039°11'0 0.0 24.6
2014-Nov-21 13:58N 28°07' W 039°11'0 0.0 24.6
2014-Nov-21 12:14N 28°07' W 039°11'1 8.0 24.5
2014-Nov-21 12:08N 28°07' W 039°11'0 0.0 24.5
2014-Nov-21 11:25N 28°07' W 039°11'0 0.0 24.5
2014-Nov-21 11:19N 28°07' W 039°11'0 0.0 24.5
2014-Nov-21 09:46N 28°07' W 039°11'0 0.0 24.5
2014-Nov-21 08:28N 28°07' W 039°11'1 1.5 24.5
2014-Nov-21 08:07N 28°07' W 039°10'1 0.6 24.5
2014-Nov-21 07:04N 28°07' W 039°10'0 0.0 24.5
2014-Nov-21 06:59N 28°07' W 039°10'0 0.0 24.5
2014-Nov-21 06:50N 28°07' W 039°10'112.0 24.5
2014-Nov-21 06:47N 28°07' W 039°10'1 6.0 24.5
2014-Nov-21 06:41N 28°07' W 039°10'0 0.0 24.5
2014-Nov-21 06:37N 28°07' W 039°10'1 7.9 24.5
2014-Nov-21 06:29N 28°07' W 039°09'0 0.0 24.5
2014-Nov-21 04:53N 28°07' W 039°09'1 0.7 24.5
2014-Nov-21 03:13N 28°08' W 039°09'0 0.0 24.5
2014-Nov-21 03:08N 28°08' W 039°09'0 0.0 24.5
2014-Nov-21 00:43N 28°08' W 039°09'1 0.6 24.5
2014-Nov-20 23:53N 28°08' W 039°10'0 0.0 24.5
2014-Nov-20 23:50N 28°08' W 039°10'0 0.0 24.5
2014-Nov-20 23:46N 28°08' W 039°10'0 0.0 24.5
2014-Nov-20 23:04N 28°08' W 039°10'0 0.0 24.5
2014-Nov-20 22:58N 28°08' W 039°10'1 7.2 24.5
2014-Nov-20 22:53N 28°09' W 039°10'0 0.0 24.5
2014-Nov-20 22:34N 28°09' W 039°10'1 1.8 24.5
2014-Nov-20 22:07N 28°10' W 039°09'0 0.0 24.5
2014-Nov-20 20:47N 28°10' W 039°09'0 0.0 24.5
2014-Nov-20 20:26N 28°10' W 039°09'1 2.9 24.6
2014-Nov-20 20:04N 28°10' W 039°10'0 0.0 24.6
2014-Nov-20 18:47N 28°10' W 039°10'1 9.0 24.6
2014-Nov-20 18:43N 28°10' W 039°10'1 1.8 24.6
2014-Nov-20 18:23N 28°10' W 039°10'1 3.0 24.6
2014-Nov-20 18:07N 28°10' W 039°10'0 0.0 24.6
2014-Nov-20 16:29N 28°10' W 039°10'1 6.0 24.6
2014-Nov-20 16:23N 28°10' W 039°10'2 1.0 24.5
2014-Nov-20 14:46N 28°11' W 039°11'0 0.0 24.6
2014-Nov-20 14:16N 28°11' W 039°11'0 0.0 24.5
2014-Nov-20 12:40N 28°11' W 039°11'0 0.0 24.5
2014-Nov-20 12:34N 28°11' W 039°11'0 0.0 24.5
2014-Nov-20 12:29N 28°11' W 039°11'0 0.0 24.5
2014-Nov-20 11:43N 28°11' W 039°11'110.6 24.5
2014-Nov-20 11:40N 28°11' W 039°10'1 1.1 24.5
2014-Nov-20 10:58N 28°11' W 039°11'1 4.0 24.5
2014-Nov-20 10:49N 28°11' W 039°11'0 0.0
2014-Nov-20 10:14N 28°11' W 039°11'0 0.0 24.5
2014-Nov-20 09:07N 28°11' W 039°11'0 0.0 24.5
2014-Nov-20 09:05N 28°11' W 039°11'1 1.3 24.5
2014-Nov-20 08:40N 28°11' W 039°10'0 0.0 24.5
2014-Nov-20 08:38N 28°11' W 039°10'1 0.5 24.5
2014-Nov-20 07:28N 28°11' W 039°10'1 8.0 24.5
2014-Nov-20 07:22N 28°11' W 039°10'0 0.0 24.5
2014-Nov-20 06:59N 28°11' W 039°10'0 0.0 24.5
2014-Nov-20 06:58N 28°11' W 039°10'1 3.0 24.5
2014-Nov-20 06:46N 28°11' W 039°10'0 0.1 24.5
2014-Nov-20 05:08N 28°11' W 039°09'0 4.2 24.5
2014-Nov-20 05:05N 28°11' W 039°10'2 0.9 24.5
2014-Nov-20 03:22N 28°13' W 039°08'1 0.3 24.5
2014-Nov-20 01:01N 28°12' W 039°08'112.0 24.5
2014-Nov-20 00:58N 28°13' W 039°08'0 0.0 24.5
2014-Nov-20 00:13N 28°13' W 039°08'0 0.0 24.5
2014-Nov-20 00:07N 28°13' W 039°08'1 1.7 24.5
2014-Nov-19 23:25N 28°13' W 039°10'0 0.0 24.5
2014-Nov-19 23:17N 28°13' W 039°10'0 0.0 24.5
2014-Nov-19 23:01N 28°13' W 039°10'0 0.5 24.5
2014-Nov-19 22:35N 28°13' W 039°09'119.5 24.5
2014-Nov-19 22:32N 28°14' W 039°09'0 0.1 24.5
2014-Nov-19 21:20N 28°14' W 039°09'1 1.6 24.6
2014-Nov-19 20:50N 28°14' W 039°08'1 0.9 24.6
2014-Nov-19 20:14N 28°14' W 039°09'1 2.3 24.6
2014-Nov-19 19:47N 28°14' W 039°08'1 9.1 24.6
2014-Nov-19 19:40N 28°14' W 039°09'0 0.0 24.6
2014-Nov-19 19:11N 28°14' W 039°09'1 1.3 24.6
2014-Nov-19 18:35N 28°15' W 039°10'1 1.9 24.7
2014-Nov-19 18:16N 28°16' W 039°10'0 0.0 24.7
2014-Nov-19 16:52N 28°16' W 039°10'1 2.3 24.7
2014-Nov-19 16:38N 28°16' W 039°09'1 0.5 24.7
2014-Nov-19 14:59N 28°16' W 039°10'1 0.4 24.7
2014-Nov-19 13:47N 28°16' W 039°10'0 0.0 24.6
2014-Nov-19 12:59N 28°16' W 039°10'0 0.0 24.6
2014-Nov-19 12:52N 28°16' W 039°10'0 0.0
2014-Nov-19 12:05N 28°16' W 039°10'0 0.0 24.6
2014-Nov-19 11:13N 28°16' W 039°10'0 0.0 24.6
2014-Nov-19 09:35N 28°16' W 039°10'1 4.5 24.6
2014-Nov-19 09:28N 28°16' W 039°10'1 3.2 24.6
2014-Nov-19 09:08N 28°16' W 039°11'1 4.2 24.6
2014-Nov-19 08:53N 28°16' W 039°10'0 0.0 24.6
2014-Nov-19 08:50N 28°16' W 039°10'1 5.3 24.6
2014-Nov-19 08:44N 28°16' W 039°10'0 0.0 24.6
2014-Nov-19 07:53N 28°16' W 039°10'1 1.3 24.6
2014-Nov-19 07:29N 28°16' W 039°10'1 1.5 24.6
2014-Nov-19 07:08N 28°16' W 039°10'0 0.0 24.6
2014-Nov-19 07:02N 28°16' W 039°10'0 0.0 24.6
2014-Nov-19 06:53N 28°16' W 039°10'1 0.3 24.6
2014-Nov-19 05:14N 28°16' W 039°10'219.9 24.6
2014-Nov-19 05:08N 28°17' W 039°08'0 0.0
2014-Nov-19 03:35N 28°17' W 039°08'0 0.0 24.6
2014-Nov-19 01:23N 28°17' W 039°08'1 1.0 24.6
2014-Nov-19 00:37N 28°18' W 039°08'0 0.0 24.6
2014-Nov-18 23:46N 28°18' W 039°08'0 0.0 24.6
2014-Nov-18 23:38N 28°18' W 039°08'1 1.4 24.7
2014-Nov-18 22:53N 28°18' W 039°07'0 0.0 24.7
2014-Nov-18 22:02N 28°18' W 039°07'124.0 24.7
2014-Nov-18 21:59N 28°19' W 039°07'1 1.6 24.7
2014-Nov-18 21:13N 28°20' W 039°07'1 1.4 24.7
2014-Nov-18 20:22N 28°21' W 039°08'0 1.2 24.7
2014-Nov-18 20:08N 28°21' W 039°09'0 0.6
2014-Nov-18 19:37N 28°21' W 039°08'0 0.0 24.7
2014-Nov-18 18:46N 28°21' W 039°08'1 1.5 24.7
2014-Nov-18 17:53N 28°22' W 039°09'233.9 24.7
2014-Nov-18 17:50N 28°22' W 039°07'0 0.0 24.7
2014-Nov-18 17:04N 28°22' W 039°07'0 0.0 24.7
2014-Nov-18 16:52N 28°22' W 039°07'1 0.4 24.7
2014-Nov-18 15:04N 28°22' W 039°08'0 0.4 24.7
2014-Nov-18 14:07N 28°23' W 039°08'0 0.1 24.7
2014-Nov-18 13:17N 28°23' W 039°08'0 1.3 24.7
2014-Nov-18 13:08N 28°22' W 039°07'0 0.4 24.7
2014-Nov-18 12:25N 28°22' W 039°08'0 1.9 24.7
2014-Nov-18 12:19N 28°22' W 039°08'1 0.8 24.7
2014-Nov-18 11:32N 28°23' W 039°08'0 0.0 24.7
2014-Nov-18 10:44N 28°23' W 039°08'0 0.0 24.7
2014-Nov-18 10:41N 28°23' W 039°08'0 0.0 24.7
2014-Nov-18 09:59N 28°23' W 039°08'0 0.0 24.7
2014-Nov-18 09:53N 28°23' W 039°08'0 0.0 24.7
2014-Nov-18 09:40N 28°23' W 039°08'0 0.0 24.7
2014-Nov-18 09:05N 28°23' W 039°08'116.0 24.7
2014-Nov-18 09:02N 28°23' W 039°07'1 6.0 24.7
2014-Nov-18 08:56N 28°23' W 039°07'0 0.0 24.7
2014-Nov-18 08:02N 28°23' W 039°07'1 1.7 24.7
2014-Nov-18 07:20N 28°23' W 039°08'112.1 24.7
2014-Nov-18 07:14N 28°23' W 039°07'0 0.0 24.7
2014-Nov-18 06:40N 28°23' W 039°07'1 5.3 24.7
2014-Nov-18 06:34N 28°23' W 039°07'0 0.2 24.7
2014-Nov-18 05:41N 28°23' W 039°06'0 0.0 24.7
2014-Nov-18 05:23N 28°23' W 039°06'119.3 24.7
2014-Nov-18 05:20N 28°23' W 039°05'0 0.0 24.8
2014-Nov-18 03:46N 28°23' W 039°05'219.2 24.8
2014-Nov-18 03:41N 28°24' W 039°04'0 0.0 24.8
2014-Nov-18 01:43N 28°24' W 039°04'0 0.0 24.8
2014-Nov-18 00:53N 28°24' W 039°04'0 0.0 24.8
2014-Nov-18 00:02N 28°24' W 039°04'0 0.0 24.9
2014-Nov-17 23:17N 28°24' W 039°04'318.5 24.9
2014-Nov-17 23:08N 28°26' W 039°02'0 0.0 24.9
2014-Nov-17 22:23N 28°26' W 039°02'0 0.0 24.9
2014-Nov-17 22:19N 28°26' W 039°02'0 0.0 24.9
2014-Nov-17 20:38N 28°26' W 039°02'126.2
2014-Nov-17 20:35N 28°27' W 039°01'0 0.0 25.0
2014-Nov-17 20:01N 28°27' W 039°01'0 0.0 25.0
2014-Nov-17 18:53N 28°27' W 039°01'2 3.1 25.0
2014-Nov-17 18:17N 28°25' W 039°02'2 1.8 25.0
2014-Nov-17 17:16N 28°27' W 039°01'0 0.0 25.0
2014-Nov-17 17:02N 28°27' W 039°01'0 0.0 25.0
2014-Nov-17 15:22N 28°27' W 039°01'1 0.9 25.1
2014-Nov-17 14:26N 28°28' W 039°01'0 0.0 25.1
2014-Nov-17 13:41N 28°28' W 039°01'0 0.0 25.0
2014-Nov-17 13:38N 28°28' W 039°01'1 0.7 25.0
2014-Nov-17 12:50N 28°28' W 039°00'1 8.0 25.0
2014-Nov-17 12:44N 28°28' W 039°01'0 0.0
2014-Nov-17 12:41N 28°28' W 039°01'0 0.0 25.0
2014-Nov-17 12:38N 28°28' W 039°01'0 0.0 25.0
2014-Nov-17 12:02N 28°28' W 039°01'1 3.0 25.0
2014-Nov-17 11:50N 28°29' W 039°01'0 0.0
2014-Nov-17 11:07N 28°29' W 039°01'115.7 24.9
2014-Nov-17 11:02N 28°28' W 039°00'0 0.0 24.9
2014-Nov-17 10:08N 28°28' W 039°00'0 0.0 24.9
2014-Nov-17 09:14N 28°28' W 039°00'2 2.3 24.9
2014-Nov-17 08:32N 28°29' W 038°59'1 0.8 24.9
2014-Nov-17 07:34N 28°28' W 038°59'1 7.2 25.0
2014-Nov-17 07:29N 28°29' W 038°59'1 1.4 25.0
2014-Nov-17 07:04N 28°28' W 038°59'1 5.3 25.0
2014-Nov-17 06:58N 28°28' W 038°59'1 8.0 25.0
2014-Nov-17 06:52N 28°29' W 038°59'1 0.5 25.0
2014-Nov-17 05:53N 28°29' W 038°59'1 6.0 25.0
2014-Nov-17 05:47N 28°28' W 038°59'0 0.0 25.0
2014-Nov-17 05:37N 28°28' W 038°59'1 9.6 25.0
2014-Nov-17 05:32N 28°29' W 038°58'0 0.1 25.0
2014-Nov-17 04:02N 28°29' W 038°58'0 1.3 24.9
2014-Nov-17 03:53N 28°29' W 038°58'172.8 24.9
2014-Nov-17 03:52N 28°29' W 038°57'1 0.3 24.9
2014-Nov-17 01:14N 28°30' W 038°56'0 0.0 25.0
2014-Nov-17 00:26N 28°30' W 038°56'1 1.2 25.0
2014-Nov-16 23:38N 28°30' W 038°57'0 2.4 25.0
2014-Nov-16 23:35N 28°30' W 038°57'110.2 25.0
2014-Nov-16 23:29N 28°30' W 038°56'0 0.4 25.0
2014-Nov-16 22:56N 28°30' W 038°56'0 0.0 25.0
2014-Nov-16 22:46N 28°30' W 038°56'1 5.3 25.1
2014-Nov-16 22:40N 28°30' W 038°56'0 0.0 25.1
2014-Nov-16 21:11N 28°30' W 038°56'1 0.7 25.1
2014-Nov-16 20:26N 28°30' W 038°55'0 0.0 25.2
2014-Nov-16 19:34N 28°30' W 038°55'0 0.0 25.4
2014-Nov-16 19:08N 28°30' W 038°55'1 2.9 25.5
2014-Nov-16 18:46N 28°30' W 038°56'1 0.4 25.5
2014-Nov-16 17:28N 28°30' W 038°56'1 6.3 25.5
2014-Nov-16 17:23N 28°30' W 038°56'1 3.5 25.5
2014-Nov-16 17:14N 28°30' W 038°56'0 0.0 25.5
2014-Nov-16 17:08N 28°30' W 038°56'1 0.3 25.5
2014-Nov-16 15:32N 28°30' W 038°55'1 0.3 25.5
2014-Nov-16 13:59N 28°30' W 038°55'0 0.4 25.4
2014-Nov-16 13:08N 28°30' W 038°54'0 0.4 25.2
2014-Nov-16 12:23N 28°30' W 038°55'0 0.0 25.1
2014-Nov-16 12:19N 28°30' W 038°55'121.1 25.1
2014-Nov-16 12:16N 28°30' W 038°53'0 0.0 25.1
2014-Nov-16 12:13N 28°30' W 038°53'1 1.0 25.1
2014-Nov-16 11:23N 28°31' W 038°54'163.3
2014-Nov-16 11:22N 28°31' W 038°53'0 0.0 24.9
2014-Nov-16 09:23N 28°31' W 038°53'110.5 24.9
2014-Nov-16 09:20N 28°31' W 038°52'0 0.0 24.9
2014-Nov-16 09:05N 28°31' W 038°52'0 0.0 24.9
2014-Nov-16 09:02N 28°31' W 038°52'136.0 24.9
2014-Nov-16 09:01N 28°30' W 038°52'0 0.0 24.9
2014-Nov-16 07:44N 28°30' W 038°52'0 0.0 24.9
2014-Nov-16 07:38N 28°30' W 038°52'1 3.0 24.9
2014-Nov-16 07:26N 28°31' W 038°52'0 0.0 24.9
2014-Nov-16 07:25N 28°31' W 038°52'1 0.6 24.9
2014-Nov-16 06:05N 28°30' W 038°52'0 0.0 25.0
2014-Nov-16 05:59N 28°30' W 038°52'0 0.0 25.0
2014-Nov-16 05:49N 28°30' W 038°52'1 5.3 25.0
2014-Nov-16 05:43N 28°30' W 038°51'0 0.0 25.0
2014-Nov-16 04:08N 28°30' W 038°51'221.1 25.0
2014-Nov-16 04:02N 28°30' W 038°49'0 0.0 25.0
2014-Nov-16 01:32N 28°30' W 038°49'0 0.0 25.1
2014-Nov-16 00:47N 28°30' W 038°49'0 0.0 25.2
2014-Nov-15 23:53N 28°30' W 038°49'0 0.0
2014-Nov-15 23:52N 28°30' W 038°49'0 0.0 25.3
2014-Nov-15 23:07N 28°30' W 038°49'1 6.0 25.1
2014-Nov-15 23:01N 28°31' W 038°49'1 1.4 25.1
2014-Nov-15 22:16N 28°31' W 038°47'0 0.0 25.1
2014-Nov-15 21:53N 28°31' W 038°47'0 0.0 25.2
2014-Nov-15 20:50N 28°31' W 038°47'1 1.0 25.2
2014-Nov-15 20:04N 28°30' W 038°47'0 0.0 25.3
2014-Nov-15 19:20N 28°30' W 038°47'115.8 25.4
2014-Nov-15 19:16N 28°30' W 038°48'1 4.0 25.4
2014-Nov-15 19:08N 28°30' W 038°47'0 0.0 25.4
2014-Nov-15 17:38N 28°30' W 038°47'1 2.1 25.7
2014-Nov-15 17:23N 28°30' W 038°47'0 0.0 25.7
2014-Nov-15 15:44N 28°30' W 038°47'2 1.5 25.7
2014-Nov-15 14:19N 28°30' W 038°44'0 0.2 25.4
2014-Nov-15 12:44N 28°30' W 038°45'0 2.9 25.1
2014-Nov-15 12:37N 28°30' W 038°44'0 0.0 25.0
2014-Nov-15 12:32N 28°30' W 038°44'0 0.0 25.0
2014-Nov-15 11:47N 28°30' W 038°44'1 7.9 24.9
2014-Nov-15 11:43N 28°30' W 038°44'0 0.0 24.9
2014-Nov-15 11:01N 28°30' W 038°44'116.0 24.8
2014-Nov-15 10:58N 28°31' W 038°44'1 6.3 24.8
2014-Nov-15 10:53N 28°31' W 038°44'0 0.0 24.8
2014-Nov-15 09:35N 28°31' W 038°44'0 0.0 24.8
2014-Nov-15 09:34N 28°31' W 038°44'112.7 24.8
2014-Nov-15 09:29N 28°31' W 038°43'1 0.8 24.8
2014-Nov-15 07:53N 28°30' W 038°41'1 0.8 24.8
2014-Nov-15 06:16N 28°31' W 038°42'1 4.0 24.8
2014-Nov-15 06:08N 28°31' W 038°41'0 0.0 24.8
2014-Nov-15 06:01N 28°31' W 038°41'0 0.0 24.8
2014-Nov-15 05:58N 28°31' W 038°41'0 0.0 24.8
2014-Nov-15 05:53N 28°31' W 038°41'0 0.0 24.8
2014-Nov-15 04:20N 28°31' W 038°41'213.7 24.8
2014-Nov-15 04:13N 28°32' W 038°40'0 0.0 24.8
2014-Nov-15 01:07N 28°32' W 038°40'1 0.7 24.9
2014-Nov-15 00:19N 28°32' W 038°41'0 0.0 24.9
2014-Nov-14 23:28N 28°32' W 038°41'0 0.0 25.0
2014-Nov-14 23:20N 28°32' W 038°41'1 0.9 25.0
2014-Nov-14 22:38N 28°33' W 038°41'1 3.2 25.0
2014-Nov-14 22:23N 28°32' W 038°40'1 1.2 25.1
2014-Nov-14 21:44N 28°33' W 038°40'0 0.0 25.1
2014-Nov-14 21:11N 28°33' W 038°40'1 1.4 25.1
2014-Nov-14 20:37N 28°32' W 038°39'0 0.0 25.1
2014-Nov-14 20:34N 28°32' W 038°39'1 1.0 25.1
2014-Nov-14 19:32N 28°32' W 038°40'0 0.0 25.1
2014-Nov-14 18:59N 28°32' W 038°40'1 0.7 25.1
2014-Nov-14 17:53N 28°33' W 038°40'0 0.0 25.1
2014-Nov-14 17:50N 28°33' W 038°40'1 2.0 25.1
2014-Nov-14 17:34N 28°33' W 038°39'1 0.5 25.1
2014-Nov-14 15:53N 28°32' W 038°40'0 0.0 25.2
2014-Nov-14 14:08N 28°32' W 038°40'0 0.0 25.1
2014-Nov-14 13:49N 28°32' W 038°40'0 0.2 25.2
2014-Nov-14 13:04N 28°33' W 038°40'0 0.0 25.1
2014-Nov-14 12:59N 28°33' W 038°40'0 0.2 25.1
2014-Nov-14 12:08N 28°32' W 038°40'1 5.3 25.0
2014-Nov-14 12:02N 28°32' W 038°39'1 0.8 25.0
2014-Nov-14 11:19N 28°33' W 038°39'0 0.0 24.9
2014-Nov-14 11:16N 28°33' W 038°39'1 0.6 24.9
2014-Nov-14 10:23N 28°33' W 038°38'1 1.7
2014-Nov-14 10:04N 28°33' W 038°39'1 5.7 24.8
2014-Nov-14 09:53N 28°33' W 038°38'0 0.0 24.8
2014-Nov-14 08:28N 28°33' W 038°38'0 0.0 24.8
2014-Nov-14 08:17N 28°33' W 038°38'0 0.0 24.8
2014-Nov-14 08:05N 28°33' W 038°38'0 0.0 24.8
2014-Nov-14 06:46N 28°33' W 038°38'0 1.9 24.9
2014-Nov-14 06:32N 28°33' W 038°37'0 0.0 24.9
2014-Nov-14 06:26N 28°33' W 038°37'0 4.3 24.9
2014-Nov-14 06:22N 28°33' W 038°37'0 0.0 24.9
2014-Nov-14 06:08N 28°33' W 038°37'0 0.0 24.9
2014-Nov-14 06:05N 28°33' W 038°37'0 0.0 24.9
2014-Nov-14 04:31N 28°33' W 038°37'1 7.9 25.0
2014-Nov-14 04:23N 28°33' W 038°36'0 0.0 25.0
2014-Nov-14 01:23N 28°33' W 038°36'136.0
2014-Nov-14 01:22N 28°34' W 038°36'   25.1
Track history (hours):
 
Tides and Currents Weather Stations Pressure Air Temp Water Temp Dewpoint Dewpoint Depression Visibility Wind Speed Wind Dir Waves Ship Positions

Ao Chao Yang 13516

Last reported at 2014-Nov-24 01:20 UTC. Time now 2014-Nov-24 04:03 UTC.
Position N 28°01' W 039°14'.

Length 20 m.

Type: Fishing. MMSI: 412469022.

Water temperature 24.5 ° C

Date/timePositionNaut miles runAvg speedWind from/ knotsBaromVisibWave heightAir tempDewpointWater temp
2014-Nov-24 01:20N 28°01' W 039°14'1 9.0 24.5
2014-Nov-24 01:16N 28°01' W 039°14'1 0.7 24.5
2014-Nov-24 00:32N 28°01' W 039°14'0 0.0 24.5
2014-Nov-23 23:41N 28°01' W 039°14'1 1.5 24.5
2014-Nov-23 22:52N 28°01' W 039°16'0 0.0 24.5
2014-Nov-23 22:44N 28°01' W 039°16'1 8.0 24.5
2014-Nov-23 22:38N 28°01' W 039°15'1 1.7 24.5
2014-Nov-23 21:56N 28°01' W 039°14'0 0.0 24.5
2014-Nov-23 20:52N 28°01' W 039°14'1 0.4 24.6
2014-Nov-23 19:29N 28°01' W 039°14'1 5.3 24.8
2014-Nov-23 19:23N 28°01' W 039°14'1 4.5 24.8
2014-Nov-23 19:16N 28°01' W 039°14'0 0.0 24.8
2014-Nov-23 19:11N 28°01' W 039°14'1 0.4 24.8
2014-Nov-23 17:49N 28°01' W 039°14'1 2.4 25.1
2014-Nov-23 17:34N 28°01' W 039°14'0 0.0 25.2
2014-Nov-23 17:31N 28°01' W 039°14'0 0.0 25.2
2014-Nov-23 15:53N 28°01' W 039°14'0 0.0 25.1
2014-Nov-23 14:10N 28°01' W 039°14'0 0.0
2014-Nov-23 14:01N 28°01' W 039°14'0 0.0 24.7
2014-Nov-23 13:17N 28°01' W 039°14'0 0.0 24.7
2014-Nov-23 13:13N 28°01' W 039°14'1 6.0 24.7
2014-Nov-23 13:07N 28°01' W 039°14'1 0.7 24.7
2014-Nov-23 12:23N 28°01' W 039°15'1 7.9 24.6
2014-Nov-23 12:19N 28°01' W 039°14'110.6 24.6
2014-Nov-23 12:16N 28°01' W 039°14'1 0.8 24.6
2014-Nov-23 11:29N 28°01' W 039°14'0 0.0 24.5
2014-Nov-23 10:43N 28°01' W 039°14'1 6.4 24.5
2014-Nov-23 10:38N 28°01' W 039°13'1 1.7 24.5
2014-Nov-23 10:19N 28°01' W 039°14'1 0.7 24.5
2014-Nov-23 09:35N 28°01' W 039°13'112.0 24.5
2014-Nov-23 09:32N 28°01' W 039°13'0 0.0 24.5
2014-Nov-23 08:44N 28°01' W 039°13'1 1.1 24.5
2014-Nov-23 08:02N 28°01' W 039°13'1 3.2 24.5
2014-Nov-23 07:52N 28°01' W 039°13'1 0.7 24.5
2014-Nov-23 07:04N 28°01' W 039°13'1 0.9 24.5
2014-Nov-23 06:26N 28°02' W 039°13'0 0.0 24.5
2014-Nov-23 06:14N 28°02' W 039°13'1 5.3 24.5
2014-Nov-23 06:08N 28°02' W 039°12'148.0 24.5
2014-Nov-23 06:07N 28°02' W 039°13'0 0.0 24.5
2014-Nov-23 04:32N 28°02' W 039°13'1 0.4 24.5
2014-Nov-23 01:38N 28°02' W 039°11'0 0.0
2014-Nov-23 01:37N 28°02' W 039°11'1 1.7 24.5
2014-Nov-23 00:52N 28°03' W 039°12'0 0.0 24.5
2014-Nov-23 00:02N 28°03' W 039°12'0 0.0 24.5
2014-Nov-22 23:59N 28°03' W 039°12'2 3.2 24.5
2014-Nov-22 23:14N 28°02' W 039°14'112.0 24.5
2014-Nov-22 23:11N 28°02' W 039°14'0 6.3
2014-Nov-22 23:07N 28°02' W 039°14'2 3.0 24.5
2014-Nov-22 22:19N 28°03' W 039°12'0 0.0
2014-Nov-22 22:17N 28°03' W 039°12'0 0.0 24.5
2014-Nov-22 21:34N 28°03' W 039°12'1 2.7 24.5
2014-Nov-22 21:16N 28°04' W 039°11'1 0.6 24.5
2014-Nov-22 19:53N 28°03' W 039°12'1 5.1 24.5
2014-Nov-22 19:46N 28°04' W 039°12'0 2.9 24.5
2014-Nov-22 19:41N 28°04' W 039°12'0 0.1 24.5
2014-Nov-22 18:01N 28°04' W 039°12'0 0.0 24.7
2014-Nov-22 17:56N 28°04' W 039°12'0 0.0 24.7
2014-Nov-22 17:46N 28°04' W 039°12'1 0.3 24.6
2014-Nov-22 16:07N 28°04' W 039°13'0 0.0 24.5
2014-Nov-22 14:22N 28°04' W 039°13'0 0.0 24.5
2014-Nov-22 13:38N 28°04' W 039°13'1 7.9 24.5
2014-Nov-22 13:34N 28°04' W 039°13'0 0.0 24.5
2014-Nov-22 12:41N 28°04' W 039°13'0 0.0 24.5
2014-Nov-22 12:35N 28°04' W 039°13'0 0.0 24.5
2014-Nov-22 11:53N 28°04' W 039°13'0 0.0 24.5
2014-Nov-22 11:50N 28°04' W 039°13'1 0.9 24.5
2014-Nov-22 10:59N 28°03' W 039°13'0 0.0 24.5
2014-Nov-22 10:01N 28°03' W 039°13'0 0.6 24.5
2014-Nov-22 09:16N 28°03' W 039°12'1 0.8 24.4
2014-Nov-22 08:16N 28°04' W 039°11'0 0.0 24.4
2014-Nov-22 07:35N 28°04' W 039°11'0 0.0 24.4
2014-Nov-22 06:40N 28°04' W 039°11'112.0 24.5
2014-Nov-22 06:37N 28°04' W 039°11'0 0.0 24.5
2014-Nov-22 06:23N 28°04' W 039°11'1 6.0 24.5
2014-Nov-22 06:17N 28°05' W 039°11'0 0.0 24.5
2014-Nov-22 04:43N 28°05' W 039°11'1 0.4 24.5
2014-Nov-22 03:01N 28°05' W 039°11'0 0.0 24.5
2014-Nov-22 01:13N 28°05' W 039°11'1 9.6 24.5
2014-Nov-22 01:08N 28°06' W 039°11'0 0.0 24.5
2014-Nov-22 00:23N 28°06' W 039°11'0 0.0 24.5
2014-Nov-21 23:32N 28°06' W 039°11'1 1.3 24.5
2014-Nov-21 22:37N 28°07' W 039°10'0 0.5 24.5
2014-Nov-21 22:04N 28°07' W 039°11'0 0.0 24.5
2014-Nov-21 20:23N 28°07' W 039°11'0 0.6 24.6
2014-Nov-21 20:17N 28°07' W 039°11'0 0.0 24.6
2014-Nov-21 20:13N 28°07' W 039°11'1 1.5
2014-Nov-21 19:52N 28°07' W 039°11'1 0.3 24.6
2014-Nov-21 18:08N 28°07' W 039°12'1 2.1 24.7
2014-Nov-21 17:53N 28°07' W 039°11'0 0.0 24.7
2014-Nov-21 16:19N 28°07' W 039°11'0 0.0 24.8
2014-Nov-21 14:35N 28°07' W 039°11'0 0.0 24.6
2014-Nov-21 13:58N 28°07' W 039°11'0 0.0 24.6
2014-Nov-21 12:14N 28°07' W 039°11'1 8.0 24.5
2014-Nov-21 12:08N 28°07' W 039°11'0 0.0 24.5
2014-Nov-21 11:25N 28°07' W 039°11'0 0.0 24.5
2014-Nov-21 11:19N 28°07' W 039°11'0 0.0 24.5
2014-Nov-21 09:46N 28°07' W 039°11'0 0.0 24.5
2014-Nov-21 08:28N 28°07' W 039°11'1 1.5 24.5
2014-Nov-21 08:07N 28°07' W 039°10'1 0.6 24.5
2014-Nov-21 07:04N 28°07' W 039°10'0 0.0 24.5
2014-Nov-21 06:59N 28°07' W 039°10'0 0.0 24.5
2014-Nov-21 06:50N 28°07' W 039°10'112.0 24.5
2014-Nov-21 06:47N 28°07' W 039°10'1 6.0 24.5
2014-Nov-21 06:41N 28°07' W 039°10'0 0.0 24.5
2014-Nov-21 06:37N 28°07' W 039°10'1 7.9 24.5
2014-Nov-21 06:29N 28°07' W 039°09'0 0.0 24.5
2014-Nov-21 04:53N 28°07' W 039°09'1 0.7 24.5
2014-Nov-21 03:13N 28°08' W 039°09'0 0.0 24.5
2014-Nov-21 03:08N 28°08' W 039°09'0 0.0 24.5
2014-Nov-21 00:43N 28°08' W 039°09'1 0.6 24.5
2014-Nov-20 23:53N 28°08' W 039°10'0 0.0 24.5
2014-Nov-20 23:50N 28°08' W 039°10'0 0.0 24.5
2014-Nov-20 23:46N 28°08' W 039°10'0 0.0 24.5
2014-Nov-20 23:04N 28°08' W 039°10'0 0.0 24.5
2014-Nov-20 22:58N 28°08' W 039°10'1 7.2 24.5
2014-Nov-20 22:53N 28°09' W 039°10'0 0.0 24.5
2014-Nov-20 22:34N 28°09' W 039°10'1 1.8 24.5
2014-Nov-20 22:07N 28°10' W 039°09'0 0.0 24.5
2014-Nov-20 20:47N 28°10' W 039°09'0 0.0 24.5
2014-Nov-20 20:26N 28°10' W 039°09'1 2.9 24.6
2014-Nov-20 20:04N 28°10' W 039°10'0 0.0 24.6
2014-Nov-20 18:47N 28°10' W 039°10'1 9.0 24.6
2014-Nov-20 18:43N 28°10' W 039°10'1 1.8 24.6
2014-Nov-20 18:23N 28°10' W 039°10'1 3.0 24.6
2014-Nov-20 18:07N 28°10' W 039°10'0 0.0 24.6
2014-Nov-20 16:29N 28°10' W 039°10'1 6.0 24.6
2014-Nov-20 16:23N 28°10' W 039°10'2 1.0 24.5
2014-Nov-20 14:46N 28°11' W 039°11'0 0.0 24.6
2014-Nov-20 14:16N 28°11' W 039°11'0 0.0 24.5
2014-Nov-20 12:40N 28°11' W 039°11'0 0.0 24.5
2014-Nov-20 12:34N 28°11' W 039°11'0 0.0 24.5
2014-Nov-20 12:29N 28°11' W 039°11'0 0.0 24.5
2014-Nov-20 11:43N 28°11' W 039°11'110.6 24.5
2014-Nov-20 11:40N 28°11' W 039°10'1 1.1 24.5
2014-Nov-20 10:58N 28°11' W 039°11'1 4.0 24.5
2014-Nov-20 10:49N 28°11' W 039°11'0 0.0
2014-Nov-20 10:14N 28°11' W 039°11'0 0.0 24.5
2014-Nov-20 09:07N 28°11' W 039°11'0 0.0 24.5
2014-Nov-20 09:05N 28°11' W 039°11'1 1.3 24.5
2014-Nov-20 08:40N 28°11' W 039°10'0 0.0 24.5
2014-Nov-20 08:38N 28°11' W 039°10'1 0.5 24.5
2014-Nov-20 07:28N 28°11' W 039°10'1 8.0 24.5
2014-Nov-20 07:22N 28°11' W 039°10'0 0.0 24.5
2014-Nov-20 06:59N 28°11' W 039°10'0 0.0 24.5
2014-Nov-20 06:58N 28°11' W 039°10'1 3.0 24.5
2014-Nov-20 06:46N 28°11' W 039°10'0 0.1 24.5
2014-Nov-20 05:08N 28°11' W 039°09'0 4.2 24.5
2014-Nov-20 05:05N 28°11' W 039°10'2 0.9 24.5
2014-Nov-20 03:22N 28°13' W 039°08'1 0.3 24.5
2014-Nov-20 01:01N 28°12' W 039°08'112.0 24.5
2014-Nov-20 00:58N 28°13' W 039°08'0 0.0 24.5
2014-Nov-20 00:13N 28°13' W 039°08'0 0.0 24.5
2014-Nov-20 00:07N 28°13' W 039°08'1 1.7 24.5
2014-Nov-19 23:25N 28°13' W 039°10'0 0.0 24.5
2014-Nov-19 23:17N 28°13' W 039°10'0 0.0 24.5
2014-Nov-19 23:01N 28°13' W 039°10'0 0.5 24.5
2014-Nov-19 22:35N 28°13' W 039°09'119.5 24.5
2014-Nov-19 22:32N 28°14' W 039°09'0 0.1 24.5
2014-Nov-19 21:20N 28°14' W 039°09'1 1.6 24.6
2014-Nov-19 20:50N 28°14' W 039°08'1 0.9 24.6
2014-Nov-19 20:14N 28°14' W 039°09'1 2.3 24.6
2014-Nov-19 19:47N 28°14' W 039°08'1 9.1 24.6
2014-Nov-19 19:40N 28°14' W 039°09'0 0.0 24.6
2014-Nov-19 19:11N 28°14' W 039°09'1 1.3 24.6
2014-Nov-19 18:35N 28°15' W 039°10'1 1.9 24.7
2014-Nov-19 18:16N 28°16' W 039°10'0 0.0 24.7
2014-Nov-19 16:52N 28°16' W 039°10'1 2.3 24.7
2014-Nov-19 16:38N 28°16' W 039°09'1 0.5 24.7
2014-Nov-19 14:59N 28°16' W 039°10'1 0.4 24.7
2014-Nov-19 13:47N 28°16' W 039°10'0 0.0 24.6
2014-Nov-19 12:59N 28°16' W 039°10'0 0.0 24.6
2014-Nov-19 12:52N 28°16' W 039°10'0 0.0
2014-Nov-19 12:05N 28°16' W 039°10'0 0.0 24.6
2014-Nov-19 11:13N 28°16' W 039°10'0 0.0 24.6
2014-Nov-19 09:35N 28°16' W 039°10'1 4.5 24.6
2014-Nov-19 09:28N 28°16' W 039°10'1 3.2 24.6
2014-Nov-19 09:08N 28°16' W 039°11'1 4.2 24.6
2014-Nov-19 08:53N 28°16' W 039°10'0 0.0 24.6
2014-Nov-19 08:50N 28°16' W 039°10'1 5.3 24.6
2014-Nov-19 08:44N 28°16' W 039°10'0 0.0 24.6
2014-Nov-19 07:53N 28°16' W 039°10'1 1.3 24.6
2014-Nov-19 07:29N 28°16' W 039°10'1 1.5 24.6
2014-Nov-19 07:08N 28°16' W 039°10'0 0.0 24.6
2014-Nov-19 07:02N 28°16' W 039°10'0 0.0 24.6
2014-Nov-19 06:53N 28°16' W 039°10'1 0.3 24.6
2014-Nov-19 05:14N 28°16' W 039°10'219.9 24.6
2014-Nov-19 05:08N 28°17' W 039°08'0 0.0
2014-Nov-19 03:35N 28°17' W 039°08'0 0.0 24.6
2014-Nov-19 01:23N 28°17' W 039°08'1 1.0 24.6
2014-Nov-19 00:37N 28°18' W 039°08'0 0.0 24.6
2014-Nov-18 23:46N 28°18' W 039°08'0 0.0 24.6
2014-Nov-18 23:38N 28°18' W 039°08'1 1.4 24.7
2014-Nov-18 22:53N 28°18' W 039°07'0 0.0 24.7
2014-Nov-18 22:02N 28°18' W 039°07'124.0 24.7
2014-Nov-18 21:59N 28°19' W 039°07'1 1.6 24.7
2014-Nov-18 21:13N 28°20' W 039°07'1 1.4 24.7
2014-Nov-18 20:22N 28°21' W 039°08'0 1.2 24.7
2014-Nov-18 20:08N 28°21' W 039°09'0 0.6
2014-Nov-18 19:37N 28°21' W 039°08'0 0.0 24.7
2014-Nov-18 18:46N 28°21' W 039°08'1 1.5 24.7
2014-Nov-18 17:53N 28°22' W 039°09'233.9 24.7
2014-Nov-18 17:50N 28°22' W 039°07'0 0.0 24.7
2014-Nov-18 17:04N 28°22' W 039°07'0 0.0 24.7
2014-Nov-18 16:52N 28°22' W 039°07'1 0.4 24.7
2014-Nov-18 15:04N 28°22' W 039°08'0 0.4 24.7
2014-Nov-18 14:07N 28°23' W 039°08'0 0.1 24.7
2014-Nov-18 13:17N 28°23' W 039°08'0 1.3 24.7
2014-Nov-18 13:08N 28°22' W 039°07'0 0.4 24.7
2014-Nov-18 12:25N 28°22' W 039°08'0 1.9 24.7
2014-Nov-18 12:19N 28°22' W 039°08'1 0.8 24.7
2014-Nov-18 11:32N 28°23' W 039°08'0 0.0 24.7
2014-Nov-18 10:44N 28°23' W 039°08'0 0.0 24.7
2014-Nov-18 10:41N 28°23' W 039°08'0 0.0 24.7
2014-Nov-18 09:59N 28°23' W 039°08'0 0.0 24.7
2014-Nov-18 09:53N 28°23' W 039°08'0 0.0 24.7
2014-Nov-18 09:40N 28°23' W 039°08'0 0.0 24.7
2014-Nov-18 09:05N 28°23' W 039°08'116.0 24.7
2014-Nov-18 09:02N 28°23' W 039°07'1 6.0 24.7
2014-Nov-18 08:56N 28°23' W 039°07'0 0.0 24.7
2014-Nov-18 08:02N 28°23' W 039°07'1 1.7 24.7
2014-Nov-18 07:20N 28°23' W 039°08'112.1 24.7
2014-Nov-18 07:14N 28°23' W 039°07'0 0.0 24.7
2014-Nov-18 06:40N 28°23' W 039°07'1 5.3 24.7
2014-Nov-18 06:34N 28°23' W 039°07'0 0.2 24.7
2014-Nov-18 05:41N 28°23' W 039°06'0 0.0 24.7
2014-Nov-18 05:23N 28°23' W 039°06'119.3 24.7
2014-Nov-18 05:20N 28°23' W 039°05'0 0.0 24.8
2014-Nov-18 03:46N 28°23' W 039°05'219.2 24.8
2014-Nov-18 03:41N 28°24' W 039°04'0 0.0 24.8
2014-Nov-18 01:43N 28°24' W 039°04'0 0.0 24.8
2014-Nov-18 00:53N 28°24' W 039°04'0 0.0 24.8
2014-Nov-18 00:02N 28°24' W 039°04'0 0.0 24.9
2014-Nov-17 23:17N 28°24' W 039°04'318.5 24.9
2014-Nov-17 23:08N 28°26' W 039°02'0 0.0 24.9
2014-Nov-17 22:23N 28°26' W 039°02'0 0.0 24.9
2014-Nov-17 22:19N 28°26' W 039°02'0 0.0 24.9
2014-Nov-17 20:38N 28°26' W 039°02'126.2
2014-Nov-17 20:35N 28°27' W 039°01'0 0.0 25.0
2014-Nov-17 20:01N 28°27' W 039°01'0 0.0 25.0
2014-Nov-17 18:53N 28°27' W 039°01'2 3.1 25.0
2014-Nov-17 18:17N 28°25' W 039°02'2 1.8 25.0
2014-Nov-17 17:16N 28°27' W 039°01'0 0.0 25.0
2014-Nov-17 17:02N 28°27' W 039°01'0 0.0 25.0
2014-Nov-17 15:22N 28°27' W 039°01'1 0.9 25.1
2014-Nov-17 14:26N 28°28' W 039°01'0 0.0 25.1
2014-Nov-17 13:41N 28°28' W 039°01'0 0.0 25.0
2014-Nov-17 13:38N 28°28' W 039°01'1 0.7 25.0
2014-Nov-17 12:50N 28°28' W 039°00'1 8.0 25.0
2014-Nov-17 12:44N 28°28' W 039°01'0 0.0
2014-Nov-17 12:41N 28°28' W 039°01'0 0.0 25.0
2014-Nov-17 12:38N 28°28' W 039°01'0 0.0 25.0
2014-Nov-17 12:02N 28°28' W 039°01'1 3.0 25.0
2014-Nov-17 11:50N 28°29' W 039°01'0 0.0
2014-Nov-17 11:07N 28°29' W 039°01'115.7 24.9
2014-Nov-17 11:02N 28°28' W 039°00'0 0.0 24.9
2014-Nov-17 10:08N 28°28' W 039°00'0 0.0 24.9
2014-Nov-17 09:14N 28°28' W 039°00'2 2.3 24.9
2014-Nov-17 08:32N 28°29' W 038°59'1 0.8 24.9
2014-Nov-17 07:34N 28°28' W 038°59'1 7.2 25.0
2014-Nov-17 07:29N 28°29' W 038°59'1 1.4 25.0
2014-Nov-17 07:04N 28°28' W 038°59'1 5.3 25.0
2014-Nov-17 06:58N 28°28' W 038°59'1 8.0 25.0
2014-Nov-17 06:52N 28°29' W 038°59'1 0.5 25.0
2014-Nov-17 05:53N 28°29' W 038°59'1 6.0 25.0
2014-Nov-17 05:47N 28°28' W 038°59'0 0.0 25.0
2014-Nov-17 05:37N 28°28' W 038°59'1 9.6 25.0
2014-Nov-17 05:32N 28°29' W 038°58'0 0.1 25.0
2014-Nov-17 04:02N 28°29' W 038°58'0 1.3 24.9
2014-Nov-17 03:53N 28°29' W 038°58'172.8 24.9
2014-Nov-17 03:52N 28°29' W 038°57'1 0.3 24.9
2014-Nov-17 01:14N 28°30' W 038°56'0 0.0 25.0
2014-Nov-17 00:26N 28°30' W 038°56'1 1.2 25.0
2014-Nov-16 23:38N 28°30' W 038°57'0 2.4 25.0
2014-Nov-16 23:35N 28°30' W 038°57'110.2 25.0
2014-Nov-16 23:29N 28°30' W 038°56'0 0.4 25.0
2014-Nov-16 22:56N 28°30' W 038°56'0 0.0 25.0
2014-Nov-16 22:46N 28°30' W 038°56'1 5.3 25.1
2014-Nov-16 22:40N 28°30' W 038°56'0 0.0 25.1
2014-Nov-16 21:11N 28°30' W 038°56'1 0.7 25.1
2014-Nov-16 20:26N 28°30' W 038°55'0 0.0 25.2
2014-Nov-16 19:34N 28°30' W 038°55'0 0.0 25.4
2014-Nov-16 19:08N 28°30' W 038°55'1 2.9 25.5
2014-Nov-16 18:46N 28°30' W 038°56'1 0.4 25.5
2014-Nov-16 17:28N 28°30' W 038°56'1 6.3 25.5
2014-Nov-16 17:23N 28°30' W 038°56'1 3.5 25.5
2014-Nov-16 17:14N 28°30' W 038°56'0 0.0 25.5
2014-Nov-16 17:08N 28°30' W 038°56'1 0.3 25.5
2014-Nov-16 15:32N 28°30' W 038°55'1 0.3 25.5
2014-Nov-16 13:59N 28°30' W 038°55'0 0.4 25.4
2014-Nov-16 13:08N 28°30' W 038°54'0 0.4 25.2
2014-Nov-16 12:23N 28°30' W 038°55'0 0.0 25.1
2014-Nov-16 12:19N 28°30' W 038°55'121.1 25.1
2014-Nov-16 12:16N 28°30' W 038°53'0 0.0 25.1
2014-Nov-16 12:13N 28°30' W 038°53'1 1.0 25.1
2014-Nov-16 11:23N 28°31' W 038°54'163.3
2014-Nov-16 11:22N 28°31' W 038°53'0 0.0 24.9
2014-Nov-16 09:23N 28°31' W 038°53'110.5 24.9
2014-Nov-16 09:20N 28°31' W 038°52'0 0.0 24.9
2014-Nov-16 09:05N 28°31' W 038°52'0 0.0 24.9
2014-Nov-16 09:02N 28°31' W 038°52'136.0 24.9
2014-Nov-16 09:01N 28°30' W 038°52'0 0.0 24.9
2014-Nov-16 07:44N 28°30' W 038°52'0 0.0 24.9
2014-Nov-16 07:38N 28°30' W 038°52'1 3.0 24.9
2014-Nov-16 07:26N 28°31' W 038°52'0 0.0 24.9
2014-Nov-16 07:25N 28°31' W 038°52'1 0.6 24.9
2014-Nov-16 06:05N 28°30' W 038°52'0 0.0 25.0
2014-Nov-16 05:59N 28°30' W 038°52'0 0.0 25.0
2014-Nov-16 05:49N 28°30' W 038°52'1 5.3 25.0
2014-Nov-16 05:43N 28°30' W 038°51'0 0.0 25.0
2014-Nov-16 04:08N 28°30' W 038°51'221.1 25.0
2014-Nov-16 04:02N 28°30' W 038°49'0 0.0 25.0
2014-Nov-16 01:32N 28°30' W 038°49'0 0.0 25.1
2014-Nov-16 00:47N 28°30' W 038°49'0 0.0 25.2
2014-Nov-15 23:53N 28°30' W 038°49'0 0.0
2014-Nov-15 23:52N 28°30' W 038°49'0 0.0 25.3
2014-Nov-15 23:07N 28°30' W 038°49'1 6.0 25.1
2014-Nov-15 23:01N 28°31' W 038°49'1 1.4 25.1
2014-Nov-15 22:16N 28°31' W 038°47'0 0.0 25.1
2014-Nov-15 21:53N 28°31' W 038°47'0 0.0 25.2
2014-Nov-15 20:50N 28°31' W 038°47'1 1.0 25.2
2014-Nov-15 20:04N 28°30' W 038°47'0 0.0 25.3
2014-Nov-15 19:20N 28°30' W 038°47'115.8 25.4
2014-Nov-15 19:16N 28°30' W 038°48'1 4.0 25.4
2014-Nov-15 19:08N 28°30' W 038°47'0 0.0 25.4
2014-Nov-15 17:38N 28°30' W 038°47'1 2.1 25.7
2014-Nov-15 17:23N 28°30' W 038°47'0 0.0 25.7
2014-Nov-15 15:44N 28°30' W 038°47'2 1.5 25.7
2014-Nov-15 14:19N 28°30' W 038°44'0 0.2 25.4
2014-Nov-15 12:44N 28°30' W 038°45'0 2.9 25.1
2014-Nov-15 12:37N 28°30' W 038°44'0 0.0 25.0
2014-Nov-15 12:32N 28°30' W 038°44'0 0.0 25.0
2014-Nov-15 11:47N 28°30' W 038°44'1 7.9 24.9
2014-Nov-15 11:43N 28°30' W 038°44'0 0.0 24.9
2014-Nov-15 11:01N 28°30' W 038°44'116.0 24.8
2014-Nov-15 10:58N 28°31' W 038°44'1 6.3 24.8
2014-Nov-15 10:53N 28°31' W 038°44'0 0.0 24.8
2014-Nov-15 09:35N 28°31' W 038°44'0 0.0 24.8
2014-Nov-15 09:34N 28°31' W 038°44'112.7 24.8
2014-Nov-15 09:29N 28°31' W 038°43'1 0.8 24.8
2014-Nov-15 07:53N 28°30' W 038°41'1 0.8 24.8
2014-Nov-15 06:16N 28°31' W 038°42'1 4.0 24.8
2014-Nov-15 06:08N 28°31' W 038°41'0 0.0 24.8
2014-Nov-15 06:01N 28°31' W 038°41'0 0.0 24.8
2014-Nov-15 05:58N 28°31' W 038°41'0 0.0 24.8
2014-Nov-15 05:53N 28°31' W 038°41'0 0.0 24.8
2014-Nov-15 04:20N 28°31' W 038°41'213.7 24.8
2014-Nov-15 04:13N 28°32' W 038°40'0 0.0 24.8
2014-Nov-15 01:07N 28°32' W 038°40'1 0.7 24.9
2014-Nov-15 00:19N 28°32' W 038°41'0 0.0 24.9
2014-Nov-14 23:28N 28°32' W 038°41'0 0.0 25.0
2014-Nov-14 23:20N 28°32' W 038°41'1 0.9 25.0
2014-Nov-14 22:38N 28°33' W 038°41'1 3.2 25.0
2014-Nov-14 22:23N 28°32' W 038°40'1 1.2 25.1
2014-Nov-14 21:44N 28°33' W 038°40'0 0.0 25.1
2014-Nov-14 21:11N 28°33' W 038°40'1 1.4 25.1
2014-Nov-14 20:37N 28°32' W 038°39'0 0.0 25.1
2014-Nov-14 20:34N 28°32' W 038°39'1 1.0 25.1
2014-Nov-14 19:32N 28°32' W 038°40'0 0.0 25.1
2014-Nov-14 18:59N 28°32' W 038°40'1 0.7 25.1
2014-Nov-14 17:53N 28°33' W 038°40'0 0.0 25.1
2014-Nov-14 17:50N 28°33' W 038°40'1 2.0 25.1
2014-Nov-14 17:34N 28°33' W 038°39'1 0.5 25.1
2014-Nov-14 15:53N 28°32' W 038°40'0 0.0 25.2
2014-Nov-14 14:08N 28°32' W 038°40'0 0.0 25.1
2014-Nov-14 13:49N 28°32' W 038°40'0 0.2 25.2
2014-Nov-14 13:04N 28°33' W 038°40'0 0.0 25.1
2014-Nov-14 12:59N 28°33' W 038°40'0 0.2 25.1
2014-Nov-14 12:08N 28°32' W 038°40'1 5.3 25.0
2014-Nov-14 12:02N 28°32' W 038°39'1 0.8 25.0
2014-Nov-14 11:19N 28°33' W 038°39'0 0.0 24.9
2014-Nov-14 11:16N 28°33' W 038°39'1 0.6 24.9
2014-Nov-14 10:23N 28°33' W 038°38'1 1.7
2014-Nov-14 10:04N 28°33' W 038°39'1 5.7 24.8
2014-Nov-14 09:53N 28°33' W 038°38'0 0.0 24.8
2014-Nov-14 08:28N 28°33' W 038°38'0 0.0 24.8
2014-Nov-14 08:17N 28°33' W 038°38'0 0.0 24.8
2014-Nov-14 08:05N 28°33' W 038°38'0 0.0 24.8
2014-Nov-14 06:46N 28°33' W 038°38'0 1.9 24.9
2014-Nov-14 06:32N 28°33' W 038°37'0 0.0 24.9
2014-Nov-14 06:26N 28°33' W 038°37'0 4.3 24.9
2014-Nov-14 06:22N 28°33' W 038°37'0 0.0 24.9
2014-Nov-14 06:08N 28°33' W 038°37'0 0.0 24.9
2014-Nov-14 06:05N 28°33' W 038°37'0 0.0 24.9
2014-Nov-14 04:31N 28°33' W 038°37'1 7.9 25.0
2014-Nov-14 04:23N 28°33' W 038°36'0 0.0 25.0
2014-Nov-14 01:23N 28°33' W 038°36'136.0
2014-Nov-14 01:22N 28°34' W 038°36'   25.1

Dump ship's entire track history